Time;durP1;ratioP1;P1;durP2;ratioP2;P2;SDS_P1;SDS_P2;PMS_P1;PMS_P2;Temp;Humidity;BMP_temperature;BMP_pressure;BME280_temperature;BME280_humidity;BME280_pressure;Samples;Min_cycle;Max_cycle;Signal;HPM_P1;HPM_P2
2021/01/03 00:02:10;;;;;;;12.75;9.68;;;1.90;94.40;;;;;;5088427;28;20230;-78
2021/01/03 00:04:40;;;;;;;13.75;10.88;;;1.90;94.80;;;;;;5083784;28;20268;-80
2021/01/03 00:07:06;;;;;;;11.00;8.60;;;2.00;94.70;;;;;;5074091;28;20199;-79
2021/01/03 00:09:32;;;;;;;12.68;9.70;;;1.60;94.60;;;;;;5079746;28;20664;-79
2021/01/03 00:11:59;;;;;;;10.38;8.70;;;1.70;95.20;;;;;;5070340;28;20215;-80
2021/01/03 00:14:30;;;;;;;9.98;8.98;;;1.80;95.40;;;;;;5076041;28;20636;-79
2021/01/03 00:16:59;;;;;;;12.68;9.00;;;1.90;95.60;;;;;;5074862;28;20190;-79
2021/01/03 00:19:27;;;;;;;10.80;8.88;;;1.90;95.20;;;;;;5083303;28;20216;-79
2021/01/03 00:21:53;;;;;;;11.73;9.50;;;1.90;95.00;;;;;;5074173;28;20707;-80
2021/01/03 00:24:19;;;;;;;11.95;9.50;;;1.80;94.90;;;;;;5081763;28;20284;-79
2021/01/03 00:26:46;;;;;;;10.93;9.02;;;2.10;95.10;;;;;;5094548;28;20194;-78
2021/01/03 00:29:14;;;;;;;11.40;9.55;;;1.90;94.90;;;;;;5094398;28;20279;-79
2021/01/03 00:31:42;;;;;;;10.25;7.90;;;2.00;94.60;;;;;;5094813;28;20744;-79
2021/01/03 00:34:11;;;;;;;8.40;7.20;;;1.80;94.40;;;;;;5077079;28;20191;-79
2021/01/03 00:36:37;;;;;;;11.95;8.30;;;1.50;94.80;;;;;;5074416;28;20695;-79
2021/01/03 00:39:04;;;;;;;9.02;7.65;;;1.70;95.20;;;;;;5077110;28;20218;-80
2021/01/03 00:41:30;;;;;;;10.10;7.95;;;2.00;95.30;;;;;;5074190;28;20188;-80
2021/01/03 00:43:57;;;;;;;12.05;8.65;;;1.90;94.30;;;;;;5075194;28;20664;-79
2021/01/03 00:46:24;;;;;;;9.70;7.82;;;1.90;94.80;;;;;;5093673;28;20256;-80
2021/01/03 00:48:51;;;;;;;10.18;7.97;;;1.80;94.30;;;;;;5084169;28;20212;-79
2021/01/03 00:51:18;;;;;;;14.40;9.65;;;1.70;94.60;;;;;;5073119;28;20281;-79
2021/01/03 00:53:44;;;;;;;11.13;9.07;;;1.90;94.80;;;;;;5077901;28;20326;-79
2021/01/03 00:56:11;;;;;;;10.10;7.57;;;1.70;94.60;;;;;;5074855;28;20203;-79
2021/01/03 00:58:37;;;;;;;11.25;8.15;;;1.90;94.70;;;;;;5078973;28;20592;-79
2021/01/03 01:01:04;;;;;;;10.70;8.13;;;1.70;94.40;;;;;;5108045;28;20217;-79
2021/01/03 01:03:30;;;;;;;10.98;8.23;;;1.90;94.80;;;;;;5114936;28;20194;-79
2021/01/03 01:05:57;;;;;;;10.55;8.10;;;1.80;94.30;;;;;;5093958;28;20229;-79
2021/01/03 01:08:24;;;;;;;11.57;8.90;;;1.90;94.40;;;;;;5092916;28;20638;-79
2021/01/03 01:10:51;;;;;;;11.30;8.45;;;1.90;94.60;;;;;;5089394;28;20245;-79
2021/01/03 01:13:18;;;;;;;13.00;8.25;;;1.80;94.30;;;;;;5079512;28;20205;-80
2021/01/03 01:15:44;;;;;;;12.88;9.23;;;2.10;94.60;;;;;;5073804;28;20256;-79
2021/01/03 01:18:10;;;;;;;11.32;8.43;;;1.90;94.00;;;;;;5084092;28;20621;-79
2021/01/03 01:20:37;;;;;;;12.00;9.75;;;1.80;94.00;;;;;;5084274;28;20207;-80
2021/01/03 01:23:04;;;;;;;10.70;8.23;;;2.10;94.40;;;;;;5074651;28;20561;-80
2021/01/03 01:25:34;;;;;;;11.75;9.00;;;2.00;94.00;;;;;;5093646;28;20234;-79
2021/01/03 01:28:01;;;;;;;8.43;7.50;;;2.00;94.30;;;;;;5088514;28;20604;-79
2021/01/03 01:30:29;;;;;;;12.65;9.15;;;2.00;94.20;;;;;;5092891;28;20817;-80
2021/01/03 01:32:57;;;;;;;11.02;8.50;;;2.10;94.20;;;;;;5090601;28;20584;-80
2021/01/03 01:35:26;;;;;;;9.40;7.70;;;2.10;94.30;;;;;;5091929;28;20335;-79
2021/01/03 01:37:52;;;;;;;9.05;6.68;;;2.20;94.20;;;;;;5073272;28;20238;-79
2021/01/03 01:40:23;;;;;;;11.60;8.60;;;2.30;93.70;;;;;;5073414;28;20284;-79
2021/01/03 01:42:52;;;;;;;15.10;9.23;;;1.80;93.40;;;;;;5073594;28;20200;-79
2021/01/03 01:45:21;;;;;;;12.15;8.57;;;1.90;94.30;;;;;;5082177;28;20233;-80
2021/01/03 01:47:50;;;;;;;10.23;9.10;;;1.80;94.40;;;;;;5075102;28;20211;-79
2021/01/03 01:50:20;;;;;;;10.75;8.05;;;1.70;94.60;;;;;;5092439;28;20695;-79
2021/01/03 01:52:52;;;;;;;12.73;8.82;;;1.90;94.80;;;;;;5090823;28;20234;-80
2021/01/03 01:55:23;;;;;;;10.73;8.48;;;1.80;94.60;;;;;;5072286;28;20445;-79
2021/01/03 01:57:57;;;;;;;10.85;8.55;;;1.70;94.40;;;;;;5071852;28;20274;-79
2021/01/03 02:00:27;;;;;;;10.38;7.80;;;1.90;94.80;;;;;;5084145;28;20245;-79
2021/01/03 02:03:01;;;;;;;9.60;8.43;;;1.80;94.70;;;;;;5090531;28;20279;-79
2021/01/03 02:05:35;;;;;;;10.35;8.60;;;2.10;95.00;;;;;;5086058;28;20187;-79
2021/01/03 02:08:09;;;;;;;11.05;8.57;;;2.00;94.90;;;;;;5078717;28;20219;-80
2021/01/03 02:10:39;;;;;;;10.75;8.95;;;1.90;94.80;;;;;;5081305;28;20210;-80
2021/01/03 02:13:15;;;;;;;13.25;8.43;;;1.90;95.10;;;;;;5073075;28;20247;-79
2021/01/03 02:15:42;;;;;;;11.18;9.40;;;1.60;94.90;;;;;;5090509;28;20222;-80
2021/01/03 02:18:12;;;;;;;12.43;9.20;;;1.50;95.40;;;;;;5086317;28;20217;-79
2021/01/03 02:20:52;;;;;;;11.45;9.65;;;1.80;95.80;;;;;;5074976;28;20565;-79
2021/01/03 02:23:31;;;;;;;11.93;9.95;;;1.80;96.00;;;;;;5090833;28;20209;-80
2021/01/03 02:26:02;;;;;;;12.70;9.05;;;1.70;95.90;;;;;;5082814;28;20562;-80
2021/01/03 02:28:37;;;;;;;11.18;9.00;;;1.90;96.00;;;;;;5088419;28;20259;-80
2021/01/03 02:31:06;;;;;;;11.73;10.25;;;2.00;96.20;;;;;;5077664;28;20606;-78
2021/01/03 02:33:38;;;;;;;10.82;9.15;;;1.90;95.70;;;;;;5089715;28;20274;-79
2021/01/03 02:36:13;;;;;;;11.52;9.43;;;1.70;95.80;;;;;;5092623;28;20218;-79
2021/01/03 02:38:50;;;;;;;13.45;9.55;;;1.50;96.10;;;;;;5084340;28;20230;-79
2021/01/03 02:41:18;;;;;;;13.25;10.85;;;1.30;96.50;;;;;;5072014;28;20286;-79
2021/01/03 02:43:45;;;;;;;12.60;9.10;;;1.60;97.30;;;;;;5075207;28;20183;-79
2021/01/03 02:46:12;;;;;;;15.50;11.00;;;1.80;97.10;;;;;;5089608;28;20209;-79
2021/01/03 02:48:38;;;;;;;13.73;10.75;;;1.50;97.30;;;;;;5091150;28;20226;-80
2021/01/03 02:51:05;;;;;;;12.75;10.40;;;1.80;97.40;;;;;;5089677;28;20194;-80
2021/01/03 02:53:31;;;;;;;14.23;10.82;;;1.80;97.10;;;;;;5089991;28;20202;-80
2021/01/03 02:55:58;;;;;;;14.18;9.88;;;1.70;97.20;;;;;;5082377;28;20260;-80
2021/01/03 02:58:25;;;;;;;16.73;11.15;;;1.70;97.50;;;;;;5076094;28;20557;-79
2021/01/03 03:00:51;;;;;;;12.88;11.32;;;1.40;97.30;;;;;;5079279;28;20218;-79
2021/01/03 03:03:18;;;;;;;11.48;9.27;;;1.30;98.00;;;;;;5084973;28;20199;-80
2021/01/03 03:05:44;;;;;;;14.50;11.02;;;1.20;98.30;;;;;;5070518;28;20203;-79
2021/01/03 03:08:11;;;;;;;16.48;11.32;;;1.10;99.20;;;;;;5089847;28;20698;-79
2021/01/03 03:10:37;;;;;;;13.73;10.98;;;1.10;99.20;;;;;;5071603;28;20238;-80
2021/01/03 03:13:04;;;;;;;16.30;11.57;;;1.10;99.40;;;;;;5086685;28;20652;-79
2021/01/03 03:15:32;;;;;;;13.65;10.75;;;1.20;99.90;;;;;;5071581;28;20195;-80
2021/01/03 03:18:00;;;;;;;14.88;10.88;;;1.30;99.90;;;;;;5084260;28;20570;-79
2021/01/03 03:20:26;;;;;;;13.85;10.63;;;1.40;99.60;;;;;;5085705;28;20739;-79
2021/01/03 03:22:53;;;;;;;13.90;10.43;;;1.30;99.50;;;;;;5089182;28;20195;-79
2021/01/03 03:25:20;;;;;;;19.40;11.35;;;1.50;99.90;;;;;;5078521;28;20610;-80
2021/01/03 03:27:46;;;;;;;15.95;11.18;;;1.00;99.30;;;;;;5088207;28;20217;-79
2021/01/03 03:30:17;;;;;;;16.63;11.18;;;0.70;99.90;;;;;;5070834;28;20242;-79
2021/01/03 03:32:50;;;;;;;19.70;12.70;;;0.90;99.90;;;;;;5089712;28;20205;-79
2021/01/03 03:35:17;;;;;;;16.65;11.77;;;1.20;99.90;;;;;;5090241;28;20194;-79
2021/01/03 03:37:44;;;;;;;15.18;11.35;;;1.10;99.90;;;;;;5085312;28;20226;-79
2021/01/03 03:40:11;;;;;;;15.30;11.10;;;1.20;99.90;;;;;;5070848;28;20191;-79
2021/01/03 03:42:37;;;;;;;15.07;11.43;;;1.20;99.90;;;;;;5087992;28;20618;-79
2021/01/03 03:45:05;;;;;;;19.02;13.57;;;1.40;99.90;;;;;;5086101;28;20237;-80
2021/01/03 03:47:32;;;;;;;15.52;11.77;;;1.40;99.90;;;;;;5090385;28;20207;-80
2021/01/03 03:49:59;;;;;;;15.48;11.02;;;1.30;99.70;;;;;;5090213;28;20230;-80
2021/01/03 03:52:25;;;;;;;15.70;11.98;;;0.80;99.90;;;;;;5091913;28;20484;-80
2021/01/03 03:54:52;;;;;;;16.80;12.30;;;1.00;99.90;;;;;;5073485;28;20271;-80
2021/01/03 03:57:18;;;;;;;18.00;12.23;;;0.90;99.90;;;;;;5072380;28;20241;-80
2021/01/03 03:59:45;;;;;;;16.40;11.98;;;0.90;99.90;;;;;;5072428;28;20207;-79
2021/01/03 04:02:11;;;;;;;16.63;11.35;;;1.00;99.90;;;;;;5083804;28;20233;-79
2021/01/03 04:04:39;;;;;;;13.25;10.85;;;0.70;99.90;;;;;;5074670;28;20658;-79
2021/01/03 04:07:06;;;;;;;21.10;14.02;;;0.80;99.90;;;;;;5080852;28;20226;-80
2021/01/03 04:09:33;;;;;;;19.13;12.80;;;0.90;99.90;;;;;;5075796;28;20230;-79
2021/01/03 04:12:00;;;;;;;19.38;13.75;;;0.70;99.90;;;;;;5080837;28;20195;-79
2021/01/03 04:14:27;;;;;;;15.07;12.15;;;0.80;99.90;;;;;;5075995;28;20191;-79
2021/01/03 04:16:57;;;;;;;17.10;12.65;;;0.90;99.90;;;;;;5071636;28;20726;-79
2021/01/03 04:19:24;;;;;;;17.02;12.90;;;0.90;99.90;;;;;;5089234;28;20308;-79
2021/01/03 04:21:52;;;;;;;17.83;12.70;;;0.80;99.90;;;;;;5081322;28;20230;-79
2021/01/03 04:24:21;;;;;;;17.02;11.35;;;0.80;99.90;;;;;;5072197;28;20197;-79
2021/01/03 04:26:53;;;;;;;15.43;11.55;;;0.70;99.90;;;;;;5091237;28;20198;-80
2021/01/03 04:29:20;;;;;;;17.27;11.93;;;0.60;99.90;;;;;;5075961;28;20218;-79
2021/01/03 04:31:47;;;;;;;17.85;12.52;;;0.60;99.90;;;;;;5071179;28;20205;-79
2021/01/03 04:34:13;;;;;;;20.50;12.10;;;0.50;99.90;;;;;;5071817;28;20226;-78
2021/01/03 04:36:40;;;;;;;17.58;12.77;;;0.70;99.90;;;;;;5071123;28;20284;-80
2021/01/03 04:39:07;;;;;;;18.42;12.75;;;0.70;99.90;;;;;;5079848;28;20240;-79
2021/01/03 04:41:41;;;;;;;16.08;13.02;;;0.70;99.90;;;;;;5109094;28;20659;-79
2021/01/03 04:44:18;;;;;;;17.52;11.23;;;0.90;99.90;;;;;;5086504;28;20196;-80
2021/01/03 04:46:46;;;;;;;16.98;12.05;;;1.10;99.90;;;;;;5073545;28;20246;-80
2021/01/03 04:49:23;;;;;;;19.67;13.80;;;0.90;99.90;;;;;;5075392;28;20250;-80
2021/01/03 04:52:30;;;;;;;16.50;11.63;;;1.10;99.90;;;;;;5074754;28;20220;-79
2021/01/03 04:55:09;;;;;;;16.85;12.73;;;1.30;99.90;;;;;;5074336;28;20199;-80
2021/01/03 04:57:45;;;;;;;18.05;12.60;;;1.60;99.90;;;;;;5078829;28;20560;-80
2021/01/03 05:00:16;;;;;;;17.58;12.40;;;1.40;99.90;;;;;;5070501;28;20676;-79
2021/01/03 05:03:40;;;;;;;16.92;11.70;;;1.20;99.90;;;;;;5072483;28;20626;-81
2021/01/03 05:06:13;;;;;;;19.63;12.45;;;1.20;99.90;;;;;;5050884;28;20263;-80
2021/01/03 05:08:44;;;;;;;17.80;11.95;;;1.30;99.90;;;;;;5050467;28;20565;-79
2021/01/03 05:11:14;;;;;;;19.98;12.35;;;1.30;99.90;;;;;;5068287;28;20598;-80
2021/01/03 05:13:54;;;;;;;22.10;13.75;;;1.50;99.90;;;;;;5074303;28;20241;-79
2021/01/03 05:16:22;;;;;;;18.40;11.82;;;1.60;99.90;;;;;;5074332;28;20191;-80
2021/01/03 05:18:49;;;;;;;16.50;11.98;;;1.40;99.90;;;;;;5083775;28;20202;-80
2021/01/03 05:21:17;;;;;;;13.52;11.27;;;1.20;99.90;;;;;;5094403;28;20202;-80
2021/01/03 05:23:58;;;;;;;16.35;12.98;;;1.40;99.90;;;;;;5090071;28;20202;-80
2021/01/03 05:26:28;;;;;;;15.63;11.88;;;1.00;99.90;;;;;;5076662;28;20269;-80
2021/01/03 05:28:56;;;;;;;18.73;11.15;;;1.20;99.90;;;;;;5074730;28;20219;-80
2021/01/03 05:31:24;;;;;;;17.35;12.18;;;1.30;99.90;;;;;;5074140;28;20538;-80
2021/01/03 05:33:54;;;;;;;14.15;11.32;;;1.20;99.90;;;;;;5075563;28;20244;-80
2021/01/03 05:36:39;;;;;;;15.48;9.90;;;1.10;99.90;;;;;;5082350;28;20190;-80
2021/01/03 05:39:14;;;;;;;14.55;11.65;;;0.90;99.90;;;;;;5091461;28;20394;-80
2021/01/03 05:42:06;;;;;;;16.65;11.55;;;0.80;99.90;;;;;;5093254;28;20339;-80
2021/01/03 05:44:38;;;;;;;13.88;10.02;;;0.90;99.90;;;;;;5081513;28;20591;-80
2021/01/03 05:47:17;;;;;;;13.43;10.15;;;0.90;99.90;;;;;;5081515;28;20194;-80
2021/01/03 05:49:47;;;;;;;16.80;12.05;;;0.90;99.90;;;;;;5075443;28;20234;-80
2021/01/03 05:52:22;;;;;;;18.70;12.65;;;1.10;99.90;;;;;;5082666;28;20282;-80
2021/01/03 05:54:51;;;;;;;17.80;11.90;;;1.20;99.90;;;;;;5077838;28;20264;-80
2021/01/03 05:57:25;;;;;;;15.93;11.38;;;1.40;99.90;;;;;;5090685;28;20210;-80
2021/01/03 05:59:54;;;;;;;14.73;11.65;;;1.40;99.90;;;;;;5073924;28;20229;-80
2021/01/03 06:02:23;;;;;;;17.05;11.05;;;1.10;99.90;;;;;;5072882;28;20574;-80
2021/01/03 06:05:04;;;;;;;19.90;12.95;;;1.20;99.90;;;;;;5092186;28;20199;-80
2021/01/03 06:07:33;;;;;;;20.00;12.90;;;1.50;99.90;;;;;;5092230;28;20199;-82
2021/01/03 06:10:00;;;;;;;19.80;12.20;;;1.10;99.90;;;;;;5091375;28;20297;-82
2021/01/03 06:12:30;;;;;;;17.73;12.45;;;0.90;99.90;;;;;;5093221;28;20232;-80
2021/01/03 06:15:00;;;;;;;19.77;12.90;;;0.90;99.90;;;;;;5078483;28;20202;-80
2021/01/03 06:17:34;;;;;;;17.85;13.18;;;0.80;99.90;;;;;;5073220;28;20237;-80
2021/01/03 06:20:13;;;;;;;15.82;12.43;;;1.00;99.90;;;;;;5093642;28;20209;-83
2021/01/03 06:22:46;;;;;;;16.50;12.20;;;1.00;99.90;;;;;;5090408;28;20592;-80
2021/01/03 06:25:34;;;;;;;16.55;12.70;;;0.90;99.90;;;;;;5085606;28;20212;-80
2021/01/03 06:28:07;;;;;;;18.77;12.77;;;1.00;99.90;;;;;;5076678;28;20195;-80
2021/01/03 06:30:35;;;;;;;20.77;14.55;;;1.00;99.90;;;;;;5093203;28;20610;-80
2021/01/03 06:33:33;;;;;;;15.23;11.55;;;1.00;99.90;;;;;;5076043;28;20191;-80
2021/01/03 06:36:07;;;;;;;24.83;13.93;;;1.30;99.90;;;;;;5075661;28;20211;-80
2021/01/03 06:38:59;;;;;;;17.50;12.98;;;1.40;99.90;;;;;;5089021;28;20206;-80
2021/01/03 06:41:45;;;;;;;20.25;16.00;;;1.20;99.90;;;;;;5092300;28;20203;-80
2021/01/03 06:44:45;;;;;;;16.42;11.70;;;1.20;99.90;;;;;;5081776;28;20237;-79
2021/01/03 06:47:51;;;;;;;22.17;14.52;;;1.40;99.90;;;;;;5059483;28;20229;-79
2021/01/03 06:50:41;;;;;;;17.52;12.27;;;1.30;99.90;;;;;;5077408;28;20261;-80
2021/01/03 06:53:43;;;;;;;19.05;13.00;;;1.30;99.90;;;;;;5092171;28;20227;-80
2021/01/03 06:56:57;;;;;;;22.35;12.68;;;1.50;99.90;;;;;;5073054;28;20238;-79
2021/01/03 07:00:00;;;;;;;23.17;14.25;;;1.60;99.90;;;;;;5078436;28;20203;-80
2021/01/03 07:02:27;;;;;;;18.20;12.75;;;1.60;99.90;;;;;;5064175;28;20199;-79
2021/01/03 07:04:54;;;;;;;19.35;13.05;;;1.40;99.90;;;;;;5088141;28;20190;-80
2021/01/03 07:07:25;;;;;;;19.00;12.82;;;1.20;99.90;;;;;;5089969;28;20198;-79
2021/01/03 07:09:56;;;;;;;20.27;13.40;;;0.90;99.90;;;;;;5071541;28;20273;-80
2021/01/03 07:12:36;;;;;;;18.15;11.77;;;0.90;99.90;;;;;;5084761;28;20191;-80
2021/01/03 07:15:08;;;;;;;21.38;13.20;;;0.90;99.90;;;;;;5072988;28;20246;-80
2021/01/03 07:18:03;;;;;;;18.90;12.68;;;1.00;99.90;;;;;;5086494;28;20202;-79
2021/01/03 07:20:35;;;;;;;16.23;12.32;;;1.30;99.90;;;;;;5090147;28;20203;-80
2021/01/03 07:23:18;;;;;;;20.42;13.02;;;1.50;99.90;;;;;;5089472;28;20608;-80
2021/01/03 07:26:02;;;;;;;15.88;10.75;;;1.50;99.90;;;;;;5082060;28;20213;-80
2021/01/03 07:28:30;;;;;;;14.27;11.90;;;1.30;99.90;;;;;;5083024;28;20206;-80
2021/01/03 07:31:30;;;;;;;18.77;12.90;;;1.40;99.90;;;;;;5072965;28;20219;-79
2021/01/03 07:34:07;;;;;;;16.20;12.55;;;1.10;99.90;;;;;;5084843;28;20218;-80
2021/01/03 07:36:46;;;;;;;18.60;12.80;;;1.10;99.90;;;;;;5090150;28;20208;-80
2021/01/03 07:39:20;;;;;;;14.88;10.45;;;0.90;99.90;;;;;;5079615;28;20207;-80
2021/01/03 07:41:49;;;;;;;18.13;12.20;;;1.10;99.90;;;;;;5081573;28;20559;-80
2021/01/03 07:44:32;;;;;;;16.75;12.35;;;1.20;99.90;;;;;;5081120;28;20199;-80
2021/01/03 07:47:00;;;;;;;18.70;12.50;;;1.20;99.90;;;;;;5099985;28;20194;-80
2021/01/03 07:49:43;;;;;;;18.50;11.70;;;1.40;99.90;;;;;;5075230;28;20597;-80
2021/01/03 07:52:39;;;;;;;18.20;13.57;;;1.60;99.90;;;;;;5066033;28;20215;-81
2021/01/03 07:55:11;;;;;;;15.90;11.57;;;1.80;99.90;;;;;;5068343;28;20199;-81
2021/01/03 07:57:37;;;;;;;18.60;12.57;;;1.80;99.90;;;;;;5068604;28;20211;-81
2021/01/03 08:00:05;;;;;;;17.15;13.40;;;1.60;99.40;;;;;;5069507;28;20227;-81
2021/01/03 08:02:35;;;;;;;20.88;12.73;;;1.50;99.60;;;;;;5069254;28;20195;-82
2021/01/03 08:05:03;;;;;;;19.83;13.13;;;1.50;99.90;;;;;;5090130;28;20237;-81
2021/01/03 08:07:30;;;;;;;16.02;12.00;;;1.60;99.90;;;;;;5070065;28;20206;-81
2021/01/03 08:10:04;;;;;;;21.27;13.20;;;1.70;99.90;;;;;;5071644;28;20247;-81
2021/01/03 08:12:34;;;;;;;19.30;12.55;;;1.80;99.90;;;;;;5070620;28;20238;-80
2021/01/03 08:15:04;;;;;;;17.63;11.00;;;1.80;99.90;;;;;;5074627;28;20255;-80
2021/01/03 08:17:35;;;;;;;15.32;11.75;;;2.00;99.90;;;;;;5080938;28;20195;-80
2021/01/03 08:20:05;;;;;;;17.88;12.05;;;1.80;99.30;;;;;;5088628;28;20202;-81
2021/01/03 08:22:32;;;;;;;16.30;12.00;;;1.90;99.60;;;;;;5070125;28;20568;-80
2021/01/03 08:25:01;;;;;;;18.73;13.73;;;1.70;99.40;;;;;;5081024;28;20194;-80
2021/01/03 08:27:33;;;;;;;18.15;12.68;;;1.80;99.90;;;;;;5086709;28;20256;-80
2021/01/03 08:30:04;;;;;;;16.42;12.18;;;1.70;99.90;;;;;;5090388;28;20230;-81
2021/01/03 08:32:32;;;;;;;14.15;10.40;;;1.40;99.40;;;;;;5091033;28;20528;-81
2021/01/03 08:35:01;;;;;;;18.70;12.32;;;1.50;99.90;;;;;;5073110;28;20204;-81
2021/01/03 08:37:34;;;;;;;18.40;13.43;;;1.50;99.90;;;;;;5077888;28;20664;-81
2021/01/03 08:40:13;;;;;;;18.63;13.02;;;1.60;99.90;;;;;;5070159;28;20210;-80
2021/01/03 08:42:44;;;;;;;17.90;11.60;;;1.60;99.90;;;;;;5076014;28;20620;-81
2021/01/03 08:45:18;;;;;;;20.38;14.40;;;1.80;99.90;;;;;;5074913;28;20742;-80
2021/01/03 08:47:46;;;;;;;18.88;13.25;;;2.00;99.90;;;;;;5075034;28;20198;-81
2021/01/03 08:50:17;;;;;;;17.70;12.10;;;2.00;99.80;;;;;;5087036;28;20214;-80
2021/01/03 08:52:54;;;;;;;18.92;14.65;;;1.80;99.90;;;;;;5089013;28;20811;-80
2021/01/03 08:55:22;;;;;;;17.38;13.00;;;1.70;99.60;;;;;;5092936;28;20240;-81
2021/01/03 08:57:56;;;;;;;19.45;12.20;;;1.80;99.50;;;;;;5092749;28;20230;-81
2021/01/03 09:00:25;;;;;;;16.40;11.38;;;1.60;99.20;;;;;;5094868;28;20210;-81
2021/01/03 09:02:56;;;;;;;19.05;14.35;;;1.50;99.80;;;;;;5090494;28;20783;-81
2021/01/03 09:05:27;;;;;;;17.05;12.75;;;1.70;99.90;;;;;;5075186;28;20524;-81
2021/01/03 09:07:55;;;;;;;19.25;13.02;;;1.80;99.90;;;;;;5078169;28;20268;-81
2021/01/03 09:10:27;;;;;;;16.40;12.73;;;1.80;99.70;;;;;;5093869;28;20623;-81
2021/01/03 09:13:06;;;;;;;15.38;11.70;;;1.90;99.40;;;;;;5089046;28;20283;-80
2021/01/03 09:15:36;;;;;;;15.38;11.02;;;1.90;99.30;;;;;;5093359;28;20205;-81
2021/01/03 09:18:14;;;;;;;16.42;11.63;;;1.80;99.10;;;;;;5085529;28;20742;-83
2021/01/03 09:20:45;;;;;;;18.50;13.38;;;2.20;99.50;;;;;;5074069;28;20286;-83
2021/01/03 09:23:15;;;;;;;16.17;12.70;;;2.20;98.70;;;;;;5077108;28;20198;-83
2021/01/03 09:25:43;;;;;;;18.17;11.55;;;1.90;98.20;;;;;;5082253;28;20201;-80
2021/01/03 09:28:14;;;;;;;16.33;11.23;;;1.80;98.40;;;;;;5090621;28;20785;-80
2021/01/03 09:30:43;;;;;;;16.95;11.15;;;1.60;98.50;;;;;;5077317;28;20230;-81
2021/01/03 09:33:22;;;;;;;15.45;10.80;;;1.60;99.20;;;;;;5093486;28;20187;-80
2021/01/03 09:36:20;;;;;;;14.35;9.93;;;1.70;99.40;;;;;;5073719;28;20283;-81
2021/01/03 09:39:29;;;;;;;17.58;11.45;;;2.20;99.60;;;;;;5077101;28;20195;-81
2021/01/03 09:42:24;;;;;;;13.68;10.38;;;2.60;98.90;;;;;;5094818;28;20252;-81
2021/01/03 09:44:58;;;;;;;13.90;11.07;;;2.80;97.90;;;;;;5092889;28;20252;-81
2021/01/03 09:47:37;;;;;;;15.40;12.07;;;2.70;97.20;;;;;;5093985;28;20567;-81
2021/01/03 09:50:21;;;;;;;16.08;10.45;;;2.70;97.40;;;;;;5084391;28;20252;-80
2021/01/03 09:52:51;;;;;;;13.43;10.50;;;2.80;97.30;;;;;;5113905;28;20227;-81
2021/01/03 09:55:22;;;;;;;12.30;9.75;;;2.60;96.80;;;;;;5079212;28;20210;-81
2021/01/03 09:57:56;;;;;;;13.50;9.38;;;2.30;96.80;;;;;;5078988;28;20196;-81
2021/01/03 10:00:26;;;;;;;13.18;9.82;;;2.20;97.50;;;;;;5074078;28;20222;-80
2021/01/03 10:03:12;;;;;;;11.50;9.02;;;2.30;97.50;;;;;;5082951;28;20207;-80
2021/01/03 10:05:40;;;;;;;9.68;8.75;;;2.10;96.80;;;;;;5073709;28;20656;-80
2021/01/03 10:08:09;;;;;;;13.40;10.02;;;2.50;97.60;;;;;;5080097;28;20220;-81
2021/01/03 10:10:44;;;;;;;12.10;9.68;;;2.30;97.10;;;;;;5078866;28;20315;-81
2021/01/03 10:13:11;;;;;;;11.65;9.70;;;2.60;97.70;;;;;;5078624;28;20226;-80
2021/01/03 10:15:38;;;;;;;15.07;10.27;;;2.70;97.20;;;;;;5094268;28;20668;-80
2021/01/03 10:18:07;;;;;;;15.18;10.70;;;2.90;97.10;;;;;;5091371;28;20597;-81
2021/01/03 10:20:43;;;;;;;12.80;10.85;;;3.00;96.50;;;;;;5093584;28;20199;-80
2021/01/03 10:23:15;;;;;;;13.95;10.25;;;2.90;96.50;;;;;;5093478;28;20197;-83
2021/01/03 10:25:42;;;;;;;13.40;10.25;;;3.50;96.70;;;;;;5090447;28;20195;-81
2021/01/03 10:28:12;;;;;;;12.48;9.60;;;3.10;96.50;;;;;;5092480;28;20190;-80
2021/01/03 10:30:40;;;;;;;12.50;10.35;;;2.80;96.00;;;;;;5077552;28;20227;-81
2021/01/03 10:33:07;;;;;;;15.05;9.90;;;2.80;96.20;;;;;;5077912;28;20194;-81
2021/01/03 10:35:33;;;;;;;13.10;9.57;;;2.90;96.10;;;;;;5093971;28;20255;-81
2021/01/03 10:38:00;;;;;;;13.90;9.73;;;2.70;95.80;;;;;;5082673;28;20206;-81
2021/01/03 10:40:27;;;;;;;12.25;9.60;;;2.60;96.10;;;;;;5094415;28;20206;-81
2021/01/03 10:42:54;;;;;;;12.38;8.95;;;2.60;96.20;;;;;;5076081;28;20733;-81
2021/01/03 10:45:22;;;;;;;11.55;9.20;;;2.70;96.40;;;;;;5092228;28;20207;-80
2021/01/03 10:47:49;;;;;;;14.07;10.13;;;2.70;96.60;;;;;;5089565;28;20255;-82
2021/01/03 10:50:18;;;;;;;15.02;9.98;;;2.70;96.60;;;;;;5082283;28;20258;-81
2021/01/03 10:52:45;;;;;;;12.95;9.90;;;2.30;96.50;;;;;;5072845;28;20199;-80
2021/01/03 10:55:13;;;;;;;15.40;11.23;;;2.20;96.90;;;;;;5085911;28;20195;-81
2021/01/03 10:57:39;;;;;;;11.98;9.10;;;2.20;97.10;;;;;;5112832;28;20205;-81
2021/01/03 11:00:09;;;;;;;11.65;9.38;;;2.30;97.50;;;;;;5074312;28;20211;-81
2021/01/03 11:02:35;;;;;;;15.38;11.20;;;2.40;97.10;;;;;;5091280;28;20202;-80
2021/01/03 11:05:02;;;;;;;14.77;11.20;;;2.50;97.30;;;;;;5074048;28;20203;-81
2021/01/03 11:07:28;;;;;;;15.63;10.80;;;2.50;96.90;;;;;;5072897;28;20203;-82
2021/01/03 11:09:55;;;;;;;14.50;10.30;;;2.30;96.40;;;;;;5073891;28;20222;-81
2021/01/03 11:12:21;;;;;;;12.73;10.23;;;2.40;96.50;;;;;;5074607;28;20256;-80
2021/01/03 11:14:47;;;;;;;11.60;8.85;;;2.70;96.80;;;;;;5093267;28;20199;-81
2021/01/03 11:17:16;;;;;;;13.30;10.30;;;3.00;96.70;;;;;;5089769;28;20406;-80
2021/01/03 11:19:43;;;;;;;11.52;9.45;;;3.20;96.40;;;;;;5081700;28;20211;-81
2021/01/03 11:22:12;;;;;;;12.77;9.55;;;3.40;96.20;;;;;;5074454;28;20706;-81
2021/01/03 11:24:40;;;;;;;14.82;10.90;;;3.50;95.80;;;;;;5091491;28;20230;-80
2021/01/03 11:27:09;;;;;;;14.15;10.63;;;3.50;95.70;;;;;;5092425;28;20545;-80
2021/01/03 11:29:36;;;;;;;13.27;10.57;;;3.50;95.40;;;;;;5076422;28;20263;-80
2021/01/03 11:32:09;;;;;;;12.88;10.75;;;3.50;95.40;;;;;;5072216;28;20224;-80
2021/01/03 11:34:36;;;;;;;12.40;10.38;;;3.60;95.30;;;;;;5092008;28;20194;-80
2021/01/03 11:37:05;;;;;;;18.50;10.90;;;3.50;95.40;;;;;;5091531;28;20198;-80
2021/01/03 11:39:32;;;;;;;14.05;10.57;;;3.60;95.50;;;;;;5089446;28;20206;-81
2021/01/03 11:42:02;;;;;;;13.20;10.48;;;3.50;95.10;;;;;;5092873;28;20225;-81
2021/01/03 11:44:28;;;;;;;11.18;9.80;;;3.20;95.10;;;;;;5078633;28;20222;-81
2021/01/03 11:47:00;;;;;;;13.88;10.50;;;3.20;95.10;;;;;;5077676;28;20236;-81
2021/01/03 11:49:27;;;;;;;14.73;10.18;;;3.30;95.50;;;;;;5075499;28;20222;-80
2021/01/03 11:51:54;;;;;;;14.20;11.60;;;3.40;95.50;;;;;;5087842;28;20198;-81
2021/01/03 11:54:21;;;;;;;14.27;11.15;;;3.50;95.60;;;;;;5090899;28;20210;-81
2021/01/03 11:56:47;;;;;;;13.35;10.27;;;3.30;95.10;;;;;;5090132;28;20246;-81
2021/01/03 11:59:15;;;;;;;13.25;10.35;;;3.30;95.50;;;;;;5085327;28;20659;-81
2021/01/03 12:01:42;;;;;;;13.27;10.90;;;3.50;95.60;;;;;;5111962;28;20216;-81
2021/01/03 12:04:08;;;;;;;11.43;10.10;;;3.60;95.30;;;;;;5083534;28;20233;-80
2021/01/03 12:06:34;;;;;;;15.25;12.00;;;3.60;94.90;;;;;;5078796;28;20206;-81
2021/01/03 12:09:02;;;;;;;13.85;11.45;;;3.70;94.80;;;;;;5075647;28;20203;-81
2021/01/03 12:11:29;;;;;;;15.52;12.40;;;3.60;94.60;;;;;;5077825;28;20276;-81
2021/01/03 12:13:59;;;;;;;13.60;11.02;;;3.60;94.70;;;;;;5080947;28;20203;-81
2021/01/03 12:16:28;;;;;;;14.25;11.13;;;3.10;94.10;;;;;;5082803;28;20199;-80
2021/01/03 12:18:55;;;;;;;12.80;9.95;;;2.20;94.20;;;;;;5084943;28;20602;-80
2021/01/03 12:21:24;;;;;;;14.77;10.60;;;2.70;95.30;;;;;;5091991;28;20206;-80
2021/01/03 12:23:51;;;;;;;16.25;12.15;;;2.50;95.40;;;;;;5089570;28;20230;-80
2021/01/03 12:26:37;;;;;;;16.75;11.32;;;2.40;95.80;;;;;;5092334;28;20201;-83
2021/01/03 12:29:04;;;;;;;16.00;11.77;;;2.70;96.20;;;;;;5084943;28;20206;-80
2021/01/03 12:31:40;;;;;;;15.50;11.43;;;2.90;96.00;;;;;;5087846;28;20226;-81
2021/01/03 12:34:07;;;;;;;14.90;11.10;;;2.90;96.00;;;;;;5083122;28;20229;-81
2021/01/03 12:36:34;;;;;;;13.40;10.60;;;2.80;95.60;;;;;;5089335;28;20194;-80
2021/01/03 12:39:01;;;;;;;14.35;11.27;;;2.70;95.50;;;;;;5087770;28;20982;-82
2021/01/03 12:41:31;;;;;;;17.42;12.23;;;2.70;95.80;;;;;;5089815;28;20199;-81
2021/01/03 12:44:44;;;;;;;15.15;11.75;;;2.90;96.30;;;;;;5087229;28;20203;-81
2021/01/03 12:47:13;;;;;;;17.02;12.50;;;3.10;96.30;;;;;;5092770;28;20244;-83
2021/01/03 12:49:39;;;;;;;15.70;11.50;;;3.20;96.40;;;;;;5095457;28;20218;-80
2021/01/03 12:52:06;;;;;;;18.48;12.68;;;3.00;95.60;;;;;;5093672;28;20203;-81
2021/01/03 12:54:32;;;;;;;18.30;11.93;;;3.20;95.90;;;;;;5091676;28;20190;-81
2021/01/03 12:57:00;;;;;;;14.95;11.45;;;3.20;95.80;;;;;;5094796;28;20198;-80
2021/01/03 12:59:26;;;;;;;14.48;11.77;;;3.20;95.40;;;;;;5093229;28;20199;-80
2021/01/03 13:01:54;;;;;;;15.73;12.00;;;2.80;94.90;;;;;;5095867;28;20684;-80
2021/01/03 13:04:20;;;;;;;15.98;12.55;;;2.80;95.40;;;;;;5094562;28;20238;-80